createdAt,value
2022-10-05T04:03:16.993Z,15.38
2022-10-05T04:05:59.341Z,15.50
2022-10-05T04:09:18.523Z,15.59
2022-10-05T04:11:51.776Z,15.64
2022-10-05T04:14:39.179Z,15.70
2022-10-05T04:17:12.252Z,15.73
2022-10-05T04:20:00.533Z,15.71
2022-10-05T04:22:36.665Z,15.76
2022-10-05T04:25:43.506Z,15.74
2022-10-05T04:28:29.623Z,15.76
2022-10-05T04:31:06.102Z,15.77
2022-10-05T04:33:33.411Z,15.64
2022-10-05T04:36:05.829Z,15.71
2022-10-05T04:38:48.737Z,15.67
2022-10-05T04:41:41.324Z,15.77
2022-10-05T04:44:23.065Z,15.70
2022-10-05T04:47:17.665Z,15.73
2022-10-05T04:50:12.930Z,15.73
2022-10-05T04:53:02.294Z,15.76
2022-10-05T04:55:40.372Z,15.77
2022-10-05T04:58:28.813Z,15.76
2022-10-05T05:01:13.837Z,15.77
2022-10-05T05:03:43.596Z,15.76
2022-10-05T05:06:18.346Z,15.71
2022-10-05T05:09:00.642Z,15.77
2022-10-05T05:11:36.237Z,15.77
2022-10-05T05:14:34.800Z,15.74
2022-10-05T05:17:13.505Z,15.70
2022-10-05T05:19:44.419Z,15.70
2022-10-05T05:22:16.913Z,15.71
2022-10-05T05:25:02.527Z,15.73
2022-10-05T05:27:40.493Z,15.67
2022-10-05T05:30:26.973Z,15.71
2022-10-05T05:33:19.671Z,15.66
2022-10-05T05:36:07.812Z,15.76
2022-10-05T05:38:53.206Z,15.71
2022-10-05T05:41:39.442Z,15.73
2022-10-05T05:44:29.395Z,15.71
2022-10-05T05:47:20.358Z,15.73
2022-10-05T05:50:24.475Z,15.64
2022-10-05T05:52:57.289Z,15.61
2022-10-05T05:55:32.988Z,15.61
2022-10-05T05:58:22.402Z,15.66
2022-10-05T06:01:30.554Z,15.70
2022-10-05T06:04:10.672Z,15.60
2022-10-05T06:06:42.488Z,15.50
2022-10-05T06:09:41.861Z,15.56
2022-10-05T06:12:16.565Z,15.44
2022-10-05T06:14:49.792Z,15.46
2022-10-05T06:17:24.562Z,15.44
2022-10-05T06:20:02.415Z,15.43
2022-10-05T06:22:39.603Z,15.40
2022-10-05T06:25:12.065Z,15.38
2022-10-05T06:27:38.620Z,15.32
2022-10-05T06:30:16.237Z,15.36
2022-10-05T06:33:20.688Z,15.38
2022-10-05T06:35:55.921Z,15.46
2022-10-05T06:38:43.854Z,15.54
2022-10-05T06:41:43.249Z,15.63
2022-10-05T06:44:37.372Z,15.61
2022-10-05T06:47:03.885Z,15.61
2022-10-05T06:49:42.530Z,15.59
2022-10-05T06:52:15.004Z,15.66
2022-10-05T06:54:50.444Z,15.79
2022-10-05T06:57:50.718Z,15.86
2022-10-05T07:00:54.277Z,15.91
2022-10-05T07:03:45.668Z,15.90
2022-10-05T07:06:28.789Z,15.88
2022-10-05T07:09:12.071Z,15.90
2022-10-05T07:12:11.112Z,15.91
2022-10-05T07:14:50.126Z,15.90
2022-10-05T07:17:42.570Z,15.88
2022-10-05T07:20:24.430Z,15.90
2022-10-05T07:23:29.096Z,15.94
2022-10-05T07:26:05.895Z,15.90
2022-10-05T07:28:55.057Z,15.91
2022-10-05T07:31:27.604Z,15.79
2022-10-05T07:34:19.230Z,15.88
2022-10-05T07:37:45.274Z,15.94
2022-10-05T07:40:38.116Z,15.97
2022-10-05T07:43:32.101Z,16.01
2022-10-05T07:46:15.543Z,15.97
2022-10-05T07:49:05.473Z,15.94
2022-10-05T07:51:45.821Z,15.97
2022-10-05T07:54:25.682Z,15.90
2022-10-05T07:57:00.560Z,15.96
2022-10-05T07:59:38.688Z,15.97
2022-10-05T08:02:29.466Z,16.08
2022-10-05T08:05:03.349Z,15.98
2022-10-05T08:07:33.968Z,16.04
2022-10-05T08:10:19.208Z,16.11
2022-10-05T08:13:14.996Z,16.09
2022-10-05T08:15:44.917Z,16.11
2022-10-05T08:18:20.694Z,16.12
2022-10-05T08:20:53.411Z,16.19
2022-10-05T08:23:31.020Z,16.08
2022-10-05T08:26:14.650Z,16.15
2022-10-05T08:28:57.437Z,16.26
2022-10-05T08:31:27.636Z,16.30
2022-10-05T08:34:17.415Z,16.41
2022-10-05T08:36:44.896Z,16.26
2022-10-05T08:39:18.926Z,16.32
2022-10-05T08:42:03.750Z,16.41
2022-10-05T08:45:07.889Z,16.48
2022-10-05T08:47:52.908Z,16.48
2022-10-05T08:50:53.315Z,16.49
2022-10-05T08:53:43.274Z,16.45
2022-10-05T08:56:29.074Z,16.44
2022-10-05T08:59:27.134Z,16.58
2022-10-05T09:02:06.202Z,16.59
2022-10-05T09:04:51.287Z,16.60
2022-10-05T09:07:17.768Z,16.75
2022-10-05T09:10:19.529Z,16.70
2022-10-05T09:13:04.876Z,16.67
2022-10-05T09:15:50.535Z,16.84
2022-10-05T09:18:52.374Z,17.02
2022-10-05T09:21:43.283Z,17.10
2022-10-05T09:24:12.840Z,17.17
2022-10-05T09:26:48.861Z,17.23
2022-10-05T09:29:37.046Z,17.23
2022-10-05T09:32:51.838Z,17.28
2022-10-05T09:35:59.657Z,17.46
2022-10-05T09:39:08.394Z,17.45
2022-10-05T09:42:02.493Z,17.64
2022-10-05T09:45:00.129Z,17.71
2022-10-05T09:48:02.636Z,17.68
2022-10-05T09:50:38.117Z,17.71
2022-10-05T09:53:40.845Z,17.83
2022-10-05T09:56:29.622Z,17.93
2022-10-05T09:59:17.952Z,18.04
2022-10-05T10:02:20.528Z,17.97
2022-10-05T10:05:05.746Z,18.00
2022-10-05T10:07:44.541Z,18.04
2022-10-05T10:10:19.954Z,18.00
2022-10-05T10:12:58.641Z,17.89
2022-10-05T10:15:34.161Z,17.89
2022-10-05T10:18:19.176Z,17.73
2022-10-05T10:21:07.551Z,17.78
2022-10-05T10:24:01.374Z,17.65
2022-10-05T10:26:47.644Z,17.52
2022-10-05T10:29:48.152Z,17.51
2022-10-05T10:32:33.040Z,17.66
2022-10-05T10:35:12.326Z,17.81
2022-10-05T10:37:58.601Z,17.69
2022-10-05T10:40:56.354Z,17.86
2022-10-05T10:44:14.144Z,17.87
2022-10-05T10:47:35.071Z,18.10
2022-10-05T10:50:28.313Z,18.14
2022-10-05T10:53:36.703Z,18.07
2022-10-05T10:56:12.327Z,18.10
2022-10-05T10:58:57.327Z,18.20
2022-10-05T11:01:32.820Z,18.47
2022-10-05T11:04:35.233Z,18.75
2022-10-05T11:07:04.597Z,18.61
2022-10-05T11:09:43.445Z,18.44
2022-10-05T11:12:13.224Z,18.48
2022-10-05T11:14:57.081Z,18.51
2022-10-05T11:17:38.681Z,18.52
2022-10-05T11:20:42.460Z,18.67
2022-10-05T11:23:39.144Z,19.18
2022-10-05T11:26:08.631Z,19.30
2022-10-05T11:28:42.433Z,19.06
2022-10-05T11:31:39.069Z,19.13
2022-10-05T11:34:08.252Z,19.05
2022-10-05T11:36:46.211Z,18.94
2022-10-05T11:39:38.115Z,19.00
2022-10-05T11:42:33.716Z,19.34
2022-10-05T11:45:33.079Z,19.89
2022-10-05T11:48:37.701Z,20.32
2022-10-05T11:51:28.903Z,20.26
2022-10-05T11:54:18.494Z,20.02
2022-10-05T11:56:54.734Z,19.60
2022-10-05T11:59:34.555Z,19.40
2022-10-05T12:02:13.932Z,19.43
2022-10-05T12:04:49.753Z,19.36
2022-10-05T12:07:30.140Z,19.40
2022-10-05T12:10:15.153Z,19.94
2022-10-05T12:12:52.296Z,19.73
2022-10-05T12:15:31.848Z,19.95
2022-10-05T12:18:08.283Z,19.91
2022-10-05T12:20:49.603Z,19.71
2022-10-05T12:23:30.893Z,19.54
2022-10-05T12:26:20.499Z,19.53
2022-10-05T12:28:52.892Z,19.51
2022-10-05T12:31:37.660Z,19.50
2022-10-05T12:34:20.857Z,19.67
2022-10-05T12:37:09.343Z,19.46
2022-10-05T12:40:00.165Z,19.66
2022-10-05T12:42:51.257Z,19.77
2022-10-05T12:45:36.065Z,19.57
2022-10-05T12:48:15.745Z,19.40
2022-10-05T12:50:47.921Z,19.45
2022-10-05T12:53:59.080Z,19.47
2022-10-05T12:56:50.559Z,19.50
2022-10-05T12:59:38.375Z,19.30
2022-10-05T13:02:39.001Z,19.34
2022-10-05T13:05:11.303Z,19.27
2022-10-05T13:07:59.007Z,19.29
2022-10-05T13:10:47.958Z,19.36
2022-10-05T13:13:23.946Z,19.39
2022-10-05T13:16:11.258Z,19.45
2022-10-05T13:19:06.605Z,19.58
2022-10-05T13:21:48.642Z,19.60
2022-10-05T13:24:24.010Z,19.92
2022-10-05T13:26:57.617Z,19.78
2022-10-05T13:29:33.116Z,20.11
2022-10-05T13:32:23.730Z,20.76
2022-10-05T13:35:02.485Z,21.12
2022-10-05T13:37:56.120Z,22.33
2022-10-05T13:40:36.332Z,22.25
2022-10-05T13:43:33.582Z,22.16
2022-10-05T13:46:37.653Z,23.47
2022-10-05T13:49:16.271Z,23.57
2022-10-05T13:52:08.469Z,24.13
2022-10-05T13:54:58.125Z,21.61
2022-10-05T13:57:45.481Z,20.36
2022-10-05T14:00:24.214Z,20.24
2022-10-05T14:02:57.755Z,19.88
2022-10-05T14:05:27.105Z,19.81
2022-10-05T14:08:02.546Z,19.56
2022-10-05T14:10:37.811Z,19.39
2022-10-05T14:13:33.666Z,19.23
2022-10-05T14:16:06.625Z,19.10
2022-10-05T14:18:36.938Z,19.09
2022-10-05T14:21:12.926Z,19.00
2022-10-05T14:23:40.314Z,18.92
2022-10-05T14:26:31.741Z,18.81
2022-10-05T14:29:18.868Z,18.69
2022-10-05T14:31:54.452Z,18.68
2022-10-05T14:34:31.024Z,18.60
2022-10-05T14:37:01.340Z,18.75
2022-10-05T14:39:34.019Z,18.72
2022-10-05T14:42:14.072Z,18.68
2022-10-05T14:44:41.071Z,18.57
2022-10-05T14:47:30.284Z,18.67
2022-10-05T14:50:30.679Z,18.68
2022-10-05T14:53:00.645Z,18.65
2022-10-05T14:55:45.842Z,18.71
2022-10-05T14:58:40.311Z,18.58
2022-10-05T15:01:14.899Z,18.47
2022-10-05T15:03:53.753Z,18.44
2022-10-05T15:06:35.455Z,18.51
2022-10-05T15:09:30.745Z,18.45
2022-10-05T15:12:01.825Z,18.38
2022-10-05T15:14:40.356Z,18.37
2022-10-05T15:17:17.274Z,18.34
2022-10-05T15:20:02.064Z,18.30
2022-10-05T15:22:36.489Z,18.36
2022-10-05T15:25:13.772Z,18.26
2022-10-05T15:28:11.517Z,18.23
2022-10-05T15:30:43.099Z,18.16
2022-10-05T15:33:20.705Z,18.16
2022-10-05T15:36:00.686Z,18.17
2022-10-05T15:39:08.287Z,18.07
2022-10-05T15:41:52.964Z,18.20
2022-10-05T15:44:28.518Z,18.12
2022-10-05T15:47:08.933Z,18.17
2022-10-05T15:49:38.320Z,18.06
2022-10-05T15:52:26.810Z,18.10
2022-10-05T15:55:11.811Z,17.99
2022-10-05T15:58:16.065Z,18.02
2022-10-05T16:00:48.576Z,17.93
2022-10-05T16:03:37.043Z,17.94
2022-10-05T16:06:38.610Z,17.87
2022-10-05T16:09:27.012Z,17.83
2022-10-05T16:12:02.363Z,17.86
2022-10-05T16:15:20.453Z,17.86
2022-10-05T16:18:27.041Z,17.73
2022-10-05T16:21:18.242Z,17.81
2022-10-05T16:24:15.599Z,17.71
2022-10-05T16:27:07.141Z,17.82
2022-10-05T16:29:51.672Z,17.76
2022-10-05T16:32:30.238Z,17.73
2022-10-05T16:35:33.255Z,17.78
2022-10-05T16:38:22.094Z,17.78
2022-10-05T16:41:02.349Z,17.71
2022-10-05T16:43:29.083Z,17.69
2022-10-05T16:46:00.501Z,17.65
2022-10-05T16:48:52.419Z,17.64
2022-10-05T16:51:21.664Z,17.54
2022-10-05T16:53:59.655Z,17.59
2022-10-05T16:56:32.058Z,17.58
2022-10-05T16:59:04.548Z,17.51
2022-10-05T17:02:05.211Z,17.62
2022-10-05T17:04:46.586Z,17.56
2022-10-05T17:07:25.090Z,17.48
2022-10-05T17:10:22.679Z,17.45
2022-10-05T17:13:03.999Z,17.55
2022-10-05T17:15:56.566Z,17.54
2022-10-05T17:18:49.390Z,17.52
2022-10-05T17:21:21.719Z,17.61
2022-10-05T17:24:00.429Z,17.64
2022-10-05T17:26:45.322Z,17.65
2022-10-05T17:29:30.824Z,17.59
2022-10-05T17:32:06.272Z,17.65
2022-10-05T17:34:36.886Z,17.56
2022-10-05T17:37:17.473Z,17.51
2022-10-05T17:39:45.970Z,17.52
2022-10-05T17:42:46.494Z,17.59
2022-10-05T17:45:13.017Z,17.55
2022-10-05T17:48:11.644Z,17.51
2022-10-05T17:51:07.414Z,17.49
2022-10-05T17:53:52.753Z,17.51
2022-10-05T17:56:23.273Z,17.56
2022-10-05T17:58:54.611Z,17.59
2022-10-05T18:01:30.364Z,17.54
2022-10-05T18:04:32.481Z,17.49
2022-10-05T18:07:16.915Z,17.54
2022-10-05T18:10:09.662Z,17.62
2022-10-05T18:12:36.120Z,17.62
2022-10-05T18:15:05.382Z,17.72
2022-10-05T18:17:56.118Z,17.73
2022-10-05T18:20:28.778Z,17.71
2022-10-05T18:23:07.368Z,17.71
2022-10-05T18:25:52.132Z,17.81
2022-10-05T18:28:21.412Z,17.78
2022-10-05T18:31:00.479Z,17.87
2022-10-05T18:33:41.534Z,17.94
2022-10-05T18:36:38.044Z,17.93
2022-10-05T18:39:33.994Z,17.93
2022-10-05T18:42:31.606Z,17.92
2022-10-05T18:45:14.782Z,17.99
2022-10-05T18:47:51.217Z,17.99
2022-10-05T18:50:34.269Z,18.02
2022-10-05T18:53:28.313Z,18.06
2022-10-05T18:56:03.587Z,18.03
2022-10-05T18:58:56.935Z,17.99
2022-10-05T19:01:28.047Z,18.03
2022-10-05T19:04:09.682Z,17.99
2022-10-05T19:06:57.581Z,17.90
2022-10-05T19:09:42.708Z,17.96
2022-10-05T19:12:22.357Z,17.92
2022-10-05T19:14:54.800Z,17.81
2022-10-05T19:17:31.729Z,17.75
2022-10-05T19:20:20.982Z,17.56
2022-10-05T19:23:30.138Z,17.41
2022-10-05T19:26:03.268Z,17.35
2022-10-05T19:28:37.123Z,17.39
2022-10-05T19:31:12.907Z,17.42
2022-10-05T19:34:07.483Z,17.38
2022-10-05T19:37:09.591Z,17.44
2022-10-05T19:39:58.757Z,17.38
2022-10-05T19:42:45.199Z,17.41
2022-10-05T19:45:28.279Z,17.34
2022-10-05T19:48:23.706Z,17.32
2022-10-05T19:50:58.629Z,17.36
2022-10-05T19:53:32.627Z,17.35
2022-10-05T19:56:21.058Z,17.28
2022-10-05T19:58:49.903Z,17.32
2022-10-05T20:01:31.414Z,17.35
2022-10-05T20:03:58.104Z,17.24
2022-10-05T20:06:26.773Z,17.04
2022-10-05T20:08:59.935Z,16.65
2022-10-05T20:11:28.244Z,16.22
2022-10-05T20:13:58.482Z,15.96
2022-10-05T20:19:50.898Z,15.13
2022-10-05T20:22:29.822Z,15.05
2022-10-05T20:25:02.453Z,14.91
2022-10-05T20:27:43.792Z,14.70
2022-10-05T20:30:27.887Z,14.68
2022-10-05T20:33:09.310Z,14.67
2022-10-05T20:35:35.826Z,14.75
2022-10-05T20:38:02.404Z,14.82
2022-10-05T20:40:30.155Z,14.80
2022-10-05T20:42:58.234Z,14.65
2022-10-05T20:45:24.870Z,14.71
2022-10-05T20:47:51.739Z,14.71
2022-10-05T20:50:18.535Z,14.71
2022-10-05T20:52:45.125Z,14.77
2022-10-05T20:55:12.206Z,14.81
2022-10-05T20:57:42.098Z,14.85
2022-10-05T21:00:10.937Z,14.84
2022-10-05T21:02:39.525Z,14.84
2022-10-05T21:05:07.775Z,14.88
2022-10-05T21:07:34.461Z,14.92
2022-10-05T21:10:04.225Z,14.95
2022-10-05T21:12:30.946Z,14.95
2022-10-05T21:14:59.532Z,14.98
2022-10-05T21:17:26.089Z,14.95
2022-10-05T21:19:52.691Z,14.89
2022-10-05T21:22:19.224Z,14.99
2022-10-05T21:24:45.992Z,15.01
2022-10-05T21:27:12.578Z,14.96
2022-10-05T21:29:41.267Z,15.05
2022-10-05T21:32:11.622Z,15.02
2022-10-05T21:34:41.637Z,14.98
2022-10-05T21:37:08.634Z,14.98
2022-10-05T21:39:36.726Z,15.02
2022-10-05T21:42:04.448Z,14.89
2022-10-05T21:44:31.048Z,15.05
2022-10-05T21:46:57.711Z,14.92
2022-10-05T21:49:25.411Z,14.74
2022-10-05T21:51:52.065Z,14.68
2022-10-05T21:54:21.123Z,14.57
2022-10-05T21:56:51.674Z,14.54
2022-10-05T21:59:21.640Z,14.61
